Time;durP1;ratioP1;P1;durP2;ratioP2;P2;SDS_P1;SDS_P2;PMS_P1;PMS_P2;Temp;Humidity;BMP_temperature;BMP_pressure;BME280_temperature;BME280_humidity;BME280_pressure;Samples;Min_cycle;Max_cycle;Signal;HPM_P1;HPM_P2
2022/01/30 00:00:47;;;;;;;38.22;5.13;;;6.30;99.90;;;;;;5072140;28;20040;-76
2022/01/30 00:03:15;;;;;;;25.33;4.57;;;5.80;99.90;;;;;;5071510;28;20122;-76
2022/01/30 00:05:41;;;;;;;39.90;6.07;;;6.10;99.90;;;;;;5072263;28;20084;-76
2022/01/30 00:08:07;;;;;;;51.35;7.18;;;5.80;99.90;;;;;;5071247;28;20534;-77
2022/01/30 00:10:38;;;;;;;52.10;6.65;;;7.10;99.90;;;;;;5071020;28;20511;-76
2022/01/30 00:13:06;;;;;;;34.03;5.97;;;5.50;99.90;;;;;;5071897;28;20087;-76
2022/01/30 00:18:41;;;;;;;47.00;6.50;;;5.70;99.90;;;;;;5056870;28;20498;-76
2022/01/30 00:21:29;;;;;;;38.92;6.05;;;6.20;99.90;;;;;;5051826;28;20049;-77
2022/01/30 00:24:04;;;;;;;41.88;6.80;;;5.70;99.90;;;;;;5052526;28;20049;-76
2022/01/30 00:26:33;;;;;;;33.92;5.93;;;5.50;99.90;;;;;;5050923;28;20493;-77
2022/01/30 00:28:59;;;;;;;40.15;6.15;;;;;;;;;;5051516;28;20369;-76
2022/01/30 00:31:26;;;;;;;37.72;5.63;;;5.90;99.90;;;;;;5050886;28;20057;-78
2022/01/30 00:33:53;;;;;;;37.45;5.88;;;6.00;99.90;;;;;;5051885;28;20053;-76
2022/01/30 00:36:19;;;;;;;32.35;4.95;;;7.10;99.90;;;;;;5051421;28;20196;-76
2022/01/30 00:38:44;;;;;;;34.63;6.00;;;8.00;99.90;;;;;;5051248;28;20135;-76
2022/01/30 00:41:11;;;;;;;41.58;6.55;;;6.70;99.90;;;;;;5050055;28;20049;-76
2022/01/30 00:43:37;;;;;;;36.40;5.45;;;7.10;99.90;;;;;;5051126;28;20560;-76
2022/01/30 00:46:03;;;;;;;26.95;5.03;;;8.20;99.90;;;;;;5050661;28;20104;-77
2022/01/30 00:48:28;;;;;;;27.42;5.07;;;6.90;99.90;;;;;;5049510;28;20120;-75
2022/01/30 00:50:55;;;;;;;46.17;6.20;;;7.60;99.90;;;;;;5050619;28;20037;-75
2022/01/30 00:53:21;;;;;;;32.17;4.95;;;7.30;99.90;;;;;;5050602;28;20143;-76
2022/01/30 00:55:46;;;;;;;19.60;3.80;;;7.40;99.90;;;;;;5051686;28;20124;-75
2022/01/30 00:58:12;;;;;;;21.40;3.83;;;5.70;99.90;;;;;;5050540;28;20049;-77
2022/01/30 01:00:39;;;;;;;22.60;3.78;;;6.40;99.90;;;;;;5051703;28;20124;-76
2022/01/30 01:03:05;;;;;;;26.83;4.50;;;;;;;;;;5051424;28;20041;-77
2022/01/30 01:05:33;;;;;;;23.95;3.83;;;5.40;99.90;;;;;;5051548;28;20136;-75
2022/01/30 01:08:07;;;;;;;34.92;5.50;;;6.40;99.90;;;;;;5050862;28;20053;-76
2022/01/30 01:10:42;;;;;;;21.73;4.38;;;6.10;99.90;;;;;;5053225;28;20053;-76
2022/01/30 01:23:50;;;;;;;33.72;5.65;;;6.60;99.90;;;;;;5070249;28;20532;-76
2022/01/30 01:26:17;;;;;;;25.63;4.82;;;5.50;99.90;;;;;;5070638;28;20408;-76
2022/01/30 01:28:43;;;;;;;30.63;5.25;;;5.00;99.90;;;;;;5069534;28;20448;-76
2022/01/30 01:31:10;;;;;;;42.63;5.82;;;6.20;99.90;;;;;;5069195;28;20493;-76
2022/01/30 01:36:20;;;;;;;44.55;5.93;;;3.80;99.90;;;;;;5070890;28;20080;-77
2022/01/30 01:38:45;;;;;;;40.20;5.43;;;5.10;99.90;;;;;;5072214;28;20102;-77
2022/01/30 01:41:11;;;;;;;46.33;6.57;;;5.40;99.90;;;;;;5074309;28;20045;-78
2022/01/30 01:43:38;;;;;;;44.40;6.90;;;5.10;99.90;;;;;;5074353;28;20387;-77
2022/01/30 01:46:12;;;;;;;36.50;5.97;;;7.50;99.90;;;;;;5074461;28;20056;-77
2022/01/30 01:48:38;;;;;;;39.08;7.20;;;6.70;99.90;;;;;;5074601;28;20098;-77
2022/01/30 01:51:06;;;;;;;44.22;7.05;;;5.10;99.90;;;;;;5074466;28;20087;-78
2022/01/30 01:53:33;;;;;;;37.05;7.00;;;5.20;99.90;;;;;;5073728;28;20052;-77
2022/01/30 01:55:59;;;;;;;41.13;6.60;;;6.10;99.90;;;;;;5074572;28;20041;-76
2022/01/30 01:58:26;;;;;;;47.08;7.10;;;6.40;99.90;;;;;;5054621;28;20056;-77
2022/01/30 02:00:52;;;;;;;42.33;6.97;;;6.70;99.90;;;;;;5054312;28;20068;-77
2022/01/30 02:03:19;;;;;;;39.80;6.30;;;7.50;99.90;;;;;;5053597;28;20045;-77
2022/01/30 02:05:51;;;;;;;38.17;6.50;;;5.30;99.90;;;;;;5054227;28;20053;-77
2022/01/30 02:11:00;;;;;;;40.33;6.05;;;7.60;99.90;;;;;;5054106;28;20045;-77
2022/01/30 02:13:53;;;;;;;38.63;5.88;;;5.60;99.90;;;;;;5053031;28;20131;-77
2022/01/30 02:27:19;;;;;;;40.88;6.55;;;5.50;99.90;;;;;;5073696;28;20048;-77
2022/01/30 02:29:45;;;;;;;51.40;7.78;;;5.60;99.90;;;;;;5058565;28;20480;-77
2022/01/30 02:32:11;;;;;;;35.03;6.07;;;5.70;99.90;;;;;;5053321;28;20096;-77
2022/01/30 02:34:37;;;;;;;54.70;7.05;;;8.30;99.90;;;;;;5053155;28;20057;-77
2022/01/30 02:37:03;;;;;;;39.35;7.75;;;7.40;99.90;;;;;;5053036;28;20473;-76
2022/01/30 02:39:29;;;;;;;44.65;6.22;;;4.60;99.90;;;;;;5052022;28;20108;-76
2022/01/30 02:41:55;;;;;;;40.30;6.50;;;7.20;99.90;;;;;;5053505;28;20377;-76
2022/01/30 02:44:46;;;;;;;43.13;7.43;;;5.50;99.90;;;;;;5052702;28;20079;-77
2022/01/30 02:47:22;;;;;;;49.75;7.28;;;5.60;99.90;;;;;;5052971;28;20131;-77
2022/01/30 02:52:35;;;;;;;43.55;7.45;;;5.20;99.90;;;;;;5052484;28;20044;-77
2022/01/30 02:55:01;;;;;;;36.92;7.20;;;5.90;99.90;;;;;;5053258;28;20048;-77
2022/01/30 02:57:26;;;;;;;44.00;7.82;;;6.80;99.90;;;;;;5051625;28;20040;-77
2022/01/30 02:59:52;;;;;;;51.15;7.63;;;5.90;99.90;;;;;;5052576;28;20052;-77
2022/01/30 03:02:18;;;;;;;35.65;7.25;;;5.20;99.90;;;;;;5052175;28;20198;-77
2022/01/30 03:04:43;;;;;;;41.92;7.30;;;6.30;99.90;;;;;;5053041;28;20037;-77
2022/01/30 03:07:09;;;;;;;38.30;6.38;;;5.50;99.90;;;;;;5052118;28;20048;-77
2022/01/30 03:09:35;;;;;;;34.88;6.75;;;6.20;99.90;;;;;;5052506;28;20049;-77
2022/01/30 03:12:02;;;;;;;34.45;6.63;;;6.90;99.90;;;;;;5052963;28;20401;-78
2022/01/30 03:14:28;;;;;;;42.58;6.68;;;4.50;99.90;;;;;;5051660;28;20504;-78
2022/01/30 03:16:54;;;;;;;39.85;7.78;;;5.20;99.90;;;;;;5058397;28;20127;-78
2022/01/30 03:19:20;;;;;;;45.30;7.78;;;7.00;99.90;;;;;;5072580;28;20117;-78
2022/01/30 03:21:45;;;;;;;48.22;6.88;;;5.20;99.90;;;;;;5072427;28;20040;-78
2022/01/30 03:24:11;;;;;;;47.63;7.82;;;5.40;99.90;;;;;;5071659;28;20106;-78
2022/01/30 03:26:39;;;;;;;42.03;6.97;;;7.50;99.90;;;;;;5072244;28;20261;-78
2022/01/30 03:29:07;;;;;;;37.85;6.70;;;7.20;99.90;;;;;;5072332;28;20048;-78
2022/01/30 03:31:34;;;;;;;41.05;7.53;;;7.00;99.90;;;;;;5071926;28;20426;-79
2022/01/30 03:34:00;;;;;;;42.13;6.68;;;7.80;99.90;;;;;;5072669;28;20394;-77
2022/01/30 03:36:26;;;;;;;51.75;8.05;;;5.00;99.90;;;;;;5070738;28;20048;-79
2022/01/30 03:38:52;;;;;;;45.13;7.07;;;5.40;99.90;;;;;;5072191;28;20542;-78
2022/01/30 03:41:17;;;;;;;49.15;6.50;;;5.20;99.90;;;;;;5072309;28;20040;-78
2022/01/30 03:43:43;;;;;;;41.30;7.25;;;7.50;99.90;;;;;;5070182;28;20052;-78
2022/01/30 03:46:09;;;;;;;52.47;7.57;;;6.60;99.90;;;;;;5071030;28;20182;-79
2022/01/30 03:48:34;;;;;;;51.05;8.02;;;4.90;99.90;;;;;;5071277;28;20044;-79
2022/01/30 03:51:00;;;;;;;48.33;7.85;;;5.40;99.90;;;;;;5070944;28;20074;-79
2022/01/30 03:53:26;;;;;;;41.75;7.82;;;3.00;99.90;;;;;;5071224;28;20044;-78
2022/01/30 03:55:51;;;;;;;45.13;6.97;;;6.00;99.90;;;;;;5071091;28;20153;-78
2022/01/30 03:58:19;;;;;;;41.03;6.88;;;6.10;99.90;;;;;;5055474;28;20134;-78
2022/01/30 04:00:45;;;;;;;45.45;7.07;;;7.90;99.90;;;;;;5051285;28;20056;-77
2022/01/30 04:03:10;;;;;;;44.78;8.73;;;6.20;99.90;;;;;;5051779;28;20048;-78
2022/01/30 04:05:37;;;;;;;56.13;8.05;;;7.40;99.90;;;;;;5051751;28;20045;-78
2022/01/30 04:08:03;;;;;;;56.78;8.77;;;5.90;99.90;;;;;;5051040;28;20508;-78
2022/01/30 04:10:30;;;;;;;42.38;8.38;;;5.80;99.90;;;;;;5051214;28;20452;-78
2022/01/30 04:12:56;;;;;;;63.90;8.75;;;5.90;99.90;;;;;;5051666;28;20045;-77
2022/01/30 04:15:22;;;;;;;53.97;8.88;;;5.90;99.90;;;;;;5051212;28;20062;-78
2022/01/30 04:17:48;;;;;;;42.55;8.15;;;6.00;99.90;;;;;;5066032;28;20113;-78
2022/01/30 04:20:14;;;;;;;50.55;7.82;;;6.00;99.90;;;;;;5087504;28;20372;-78
2022/01/30 04:22:40;;;;;;;41.88;7.68;;;6.00;99.90;;;;;;5070698;28;20049;-78
2022/01/30 04:25:06;;;;;;;52.75;8.43;;;6.80;99.90;;;;;;5071694;28;20389;-78
2022/01/30 04:27:32;;;;;;;49.72;7.35;;;4.80;99.90;;;;;;5071102;28;20041;-78
2022/01/30 04:29:58;;;;;;;38.03;7.47;;;7.00;99.90;;;;;;5053636;28;20048;-77
2022/01/30 04:32:26;;;;;;;50.88;8.63;;;6.00;99.90;;;;;;5049844;28;20134;-78
2022/01/30 04:34:57;;;;;;;46.03;8.30;;;6.80;99.90;;;;;;5051373;28;20049;-77
2022/01/30 04:37:37;;;;;;;49.05;7.63;;;5.90;99.90;;;;;;5051068;28;20409;-77
2022/01/30 04:52:03;;;;;;;47.08;8.07;;;5.50;99.90;;;;;;5049650;28;20045;-78
2022/01/30 05:02:02;;;;;;;51.88;8.30;;;4.80;99.90;;;;;;5013990;28;20104;-78
2022/01/30 05:05:04;;;;;;;46.97;9.07;;;4.80;99.90;;;;;;5050545;28;20072;-79
2022/01/30 05:09:41;;;;;;;50.20;9.43;;;4.80;99.90;;;;;;5050661;28;20095;-78
2022/01/30 05:12:08;;;;;;;67.33;9.33;;;5.40;99.90;;;;;;5050868;28;20064;-78
2022/01/30 05:14:36;;;;;;;55.50;8.98;;;5.00;99.90;;;;;;5053207;28;20136;-78
2022/01/30 05:17:03;;;;;;;68.45;10.20;;;5.40;99.90;;;;;;5061270;28;20377;-78
2022/01/30 05:19:30;;;;;;;68.80;9.10;;;5.50;99.90;;;;;;5074513;28;20049;-78
2022/01/30 05:21:56;;;;;;;58.13;10.18;;;7.10;99.90;;;;;;5074390;28;20103;-78
2022/01/30 05:24:22;;;;;;;63.30;10.90;;;5.40;99.90;;;;;;5073723;28;20049;-78
2022/01/30 05:26:49;;;;;;;47.72;9.13;;;5.30;99.90;;;;;;5074155;28;20755;-78
2022/01/30 05:29:15;;;;;;;42.83;7.60;;;5.30;99.90;;;;;;5074245;28;20051;-78
2022/01/30 05:31:42;;;;;;;45.85;6.72;;;4.70;99.90;;;;;;5073639;28;20139;-78
2022/01/30 05:34:08;;;;;;;50.60;7.73;;;5.20;99.90;;;;;;5074545;28;20052;-78
2022/01/30 05:36:38;;;;;;;40.00;7.78;;;6.70;99.90;;;;;;5089387;28;20048;-78
2022/01/30 05:39:05;;;;;;;44.42;7.95;;;5.30;99.90;;;;;;5074490;28;20040;-78
2022/01/30 05:41:32;;;;;;;43.20;7.88;;;4.70;99.90;;;;;;5073884;28;20055;-79
2022/01/30 05:44:06;;;;;;;44.67;8.33;;;5.00;99.90;;;;;;5074002;28;20055;-78
2022/01/30 05:46:40;;;;;;;63.17;9.18;;;7.10;99.90;;;;;;5072730;28;20053;-79
2022/01/30 05:49:06;;;;;;;49.65;8.63;;;5.00;99.90;;;;;;5073281;28;20052;-78
2022/01/30 05:51:32;;;;;;;63.00;8.85;;;4.80;99.90;;;;;;5073428;28;20060;-78
2022/01/30 05:53:57;;;;;;;62.80;9.05;;;6.90;99.90;;;;;;5073156;28;20377;-78
2022/01/30 05:56:23;;;;;;;57.33;8.63;;;5.90;99.90;;;;;;5072681;28;20044;-77
2022/01/30 05:58:49;;;;;;;60.55;9.75;;;7.70;99.90;;;;;;5035597;28;20037;-78
2022/01/30 06:01:14;;;;;;;59.05;8.68;;;3.50;99.90;;;;;;5067295;28;20104;-78
2022/01/30 06:03:40;;;;;;;54.42;9.60;;;7.30;99.90;;;;;;5073519;28;20049;-78
2022/01/30 06:06:08;;;;;;;65.03;9.88;;;;;;;;;;5073927;28;20055;-79
2022/01/30 06:11:06;;;;;;;56.88;9.77;;;7.40;99.90;;;;;;5073845;28;20094;-79
2022/01/30 06:13:32;;;;;;;58.88;9.45;;;;;;;;;;5073040;28;20087;-81
2022/01/30 06:15:59;;;;;;;58.60;9.15;;;5.40;99.90;;;;;;5073826;28;20496;-79
2022/01/30 06:18:25;;;;;;;52.38;10.35;;;;;;;;;;5073505;28;20167;-79
2022/01/30 06:20:51;;;;;;;58.83;8.50;;;5.10;99.90;;;;;;5073058;28;20477;-78
2022/01/30 06:23:17;;;;;;;64.80;10.55;;;5.50;99.90;;;;;;5072795;28;20059;-79
2022/01/30 06:25:43;;;;;;;65.40;9.50;;;3.30;99.90;;;;;;5072935;28;20135;-78
2022/01/30 06:28:08;;;;;;;60.97;10.20;;;8.00;99.90;;;;;;5073117;28;20067;-79
2022/01/30 06:30:34;;;;;;;42.10;8.27;;;5.30;99.40;;;;;;5073148;28;20048;-81
2022/01/30 06:33:00;;;;;;;58.75;9.95;;;5.70;98.00;;;;;;5073313;28;20059;-79
2022/01/30 06:35:26;;;;;;;46.30;9.40;;;7.60;98.40;;;;;;5073559;28;20130;-78
2022/01/30 06:37:52;;;;;;;59.33;10.20;;;8.90;99.90;;;;;;5054752;28;20465;-78
2022/01/30 06:40:17;;;;;;;52.80;8.98;;;7.60;99.60;;;;;;5039334;28;20074;-78
2022/01/30 06:42:43;;;;;;;42.17;8.93;;;4.70;99.90;;;;;;5071692;28;20477;-78
2022/01/30 06:45:09;;;;;;;61.53;10.65;;;5.90;99.90;;;;;;5072870;28;20482;-78
2022/01/30 06:47:42;;;;;;;46.53;9.13;;;5.50;99.70;;;;;;5054697;28;20048;-79
2022/01/30 06:50:09;;;;;;;65.90;10.27;;;6.60;98.80;;;;;;5052913;28;20045;-79
2022/01/30 06:52:36;;;;;;;63.88;10.55;;;6.90;99.10;;;;;;5052797;28;20040;-79
2022/01/30 06:55:02;;;;;;;55.25;8.85;;;5.50;98.00;;;;;;5053074;28;20045;-78
2022/01/30 06:57:28;;;;;;;57.28;9.90;;;5.60;97.40;;;;;;5052995;28;20131;-78
2022/01/30 06:59:53;;;;;;;71.72;10.98;;;5.70;98.80;;;;;;5052316;28;20480;-79
2022/01/30 07:02:19;;;;;;;62.85;9.43;;;7.50;97.20;;;;;;5051452;28;20045;-78
2022/01/30 07:04:45;;;;;;;63.33;9.98;;;6.40;98.30;;;;;;5051317;28;20401;-79
2022/01/30 07:07:10;;;;;;;51.53;8.93;;;5.80;96.60;;;;;;5052422;28;20045;-78
2022/01/30 07:09:36;;;;;;;61.65;10.07;;;7.10;95.00;;;;;;5052716;28;20040;-78
2022/01/30 07:12:02;;;;;;;73.10;10.38;;;5.90;94.10;;;;;;5052671;28;20084;-79
2022/01/30 07:14:29;;;;;;;51.40;8.43;;;5.90;92.30;;;;;;5052233;28;20049;-79
2022/01/30 07:16:55;;;;;;;57.40;9.20;;;7.80;92.60;;;;;;5059181;28;20044;-78
2022/01/30 07:19:21;;;;;;;51.92;9.63;;;6.30;89.10;;;;;;5071883;28;20048;-79
2022/01/30 07:21:47;;;;;;;42.83;8.35;;;5.40;90.60;;;;;;5070433;28;20045;-79
2022/01/30 07:24:12;;;;;;;49.45;8.38;;;6.10;86.10;;;;;;5072604;28;20646;-79
2022/01/30 07:26:38;;;;;;;65.53;9.38;;;6.10;82.70;;;;;;5072634;28;20066;-79
2022/01/30 07:29:04;;;;;;;57.85;10.20;;;6.10;80.70;;;;;;5062931;28;20094;-79
2022/01/30 07:31:32;;;;;;;51.38;9.63;;;6.40;83.30;;;;;;5050900;28;20443;-79
2022/01/30 07:33:58;;;;;;;46.30;9.98;;;5.60;91.10;;;;;;5050743;28;20060;-79
2022/01/30 07:36:24;;;;;;;51.20;9.85;;;6.10;81.80;;;;;;5051587;28;20584;-79
2022/01/30 07:38:50;;;;;;;53.90;8.85;;;5.10;88.00;;;;;;5051482;28;20045;-80
2022/01/30 07:41:16;;;;;;;61.25;9.90;;;6.60;81.00;;;;;;5067800;28;20045;-79
2022/01/30 07:43:42;;;;;;;62.55;10.57;;;;;;;;;;5051179;28;20585;-81
2022/01/30 07:46:08;;;;;;;46.85;9.70;;;5.90;89.00;;;;;;5052280;28;20037;-79
2022/01/30 07:48:34;;;;;;;64.80;9.05;;;7.60;82.10;;;;;;5051850;28;20053;-79
2022/01/30 07:50:59;;;;;;;41.67;8.35;;;5.20;87.30;;;;;;5051758;28;20053;-79
2022/01/30 07:53:25;;;;;;;60.65;9.45;;;6.30;91.20;;;;;;5050383;28;20053;-79
2022/01/30 07:55:51;;;;;;;48.70;7.95;;;5.60;87.90;;;;;;5051180;28;20067;-79
2022/01/30 07:58:17;;;;;;;50.00;9.95;;;6.40;86.90;;;;;;5050381;28;20057;-79
2022/01/30 08:00:42;;;;;;;64.50;9.32;;;5.00;83.50;;;;;;5051917;28;20287;-79
2022/01/30 08:03:09;;;;;;;42.78;8.18;;;8.20;76.90;;;;;;5050484;28;20049;-79
2022/01/30 08:05:37;;;;;;;39.97;8.27;;;8.40;73.20;;;;;;5051975;28;20048;-79
2022/01/30 08:08:03;;;;;;;;;;;8.30;68.30;;;;;;5051235;28;20053;-79
2022/01/30 08:10:29;;;;;;;51.80;8.60;;;6.10;64.20;;;;;;5050597;28;19966;-79
2022/01/30 08:12:55;;;;;;;50.85;8.38;;;6.10;70.40;;;;;;5051201;28;20118;-79
2022/01/30 08:15:21;;;;;;;43.25;7.88;;;;;;;;;;5050291;28;20064;-78
2022/01/30 08:17:48;;;;;;;50.38;8.68;;;;;;;;;;5064283;28;20127;-80
2022/01/30 08:20:14;;;;;;;43.03;8.25;;;6.10;59.10;;;;;;5071845;28;20056;-79
2022/01/30 08:23:00;;;;;;;32.83;7.32;;;7.50;60.80;;;;;;5071068;28;20398;-79
2022/01/30 08:25:26;;;;;;;45.08;7.82;;;6.20;56.60;;;;;;5071777;28;20045;-78
2022/01/30 08:27:53;;;;;;;44.17;8.00;;;6.20;59.10;;;;;;5053484;28;20051;-79
2022/01/30 08:30:19;;;;;;;42.83;8.02;;;6.20;55.60;;;;;;5050171;28;20102;-79
2022/01/30 08:32:48;;;;;;;48.10;7.72;;;6.50;53.50;;;;;;5051450;28;20056;-79
2022/01/30 08:35:15;;;;;;;41.92;8.18;;;6.30;52.50;;;;;;5051738;28;20115;-79
2022/01/30 08:37:40;;;;;;;44.90;7.95;;;9.10;51.40;;;;;;5051139;28;20127;-79
2022/01/30 08:40:09;;;;;;;51.22;8.35;;;6.30;51.70;;;;;;5051468;28;20152;-79
2022/01/30 08:42:36;;;;;;;53.45;8.38;;;6.40;51.20;;;;;;5050241;28;20402;-79
2022/01/30 08:45:03;;;;;;;57.78;8.95;;;6.50;63.00;;;;;;5050842;28;20049;-78
2022/01/30 08:47:28;;;;;;;49.20;8.15;;;7.40;51.60;;;;;;5052894;28;20440;-80
2022/01/30 08:49:54;;;;;;;52.33;9.50;;;6.20;55.30;;;;;;5070878;28;20045;-80
2022/01/30 08:52:20;;;;;;;50.55;8.75;;;8.30;51.30;;;;;;5053062;28;20049;-79
2022/01/30 08:54:48;;;;;;;40.10;8.85;;;8.20;53.00;;;;;;5055205;28;20084;-79
2022/01/30 08:57:13;;;;;;;;;;;5.70;50.90;;;;;;5055199;28;20489;-79
2022/01/30 08:59:39;;;;;;;54.42;8.10;;;6.30;51.00;;;;;;5053982;28;20012;-79
2022/01/30 09:02:05;;;;;;;40.95;8.43;;;4.90;58.30;;;;;;5054924;28;20045;-79
2022/01/30 09:04:30;;;;;;;50.85;8.60;;;7.20;49.60;;;;;;5055029;28;20482;-79
2022/01/30 09:06:56;;;;;;;45.40;8.75;;;7.00;55.50;;;;;;5054432;28;20048;-79
2022/01/30 09:09:22;;;;;;;56.17;8.15;;;9.10;49.80;;;;;;5055272;28;20048;-79
2022/01/30 09:11:48;;;;;;;49.53;8.50;;;8.60;46.70;;;;;;5053814;28;20118;-79
2022/01/30 09:14:15;;;;;;;45.50;8.13;;;7.50;46.60;;;;;;5053306;28;20045;-79
2022/01/30 09:16:41;;;;;;;50.83;9.10;;;;;;;;;;5060165;28;20117;-79
2022/01/30 09:19:06;;;;;;;46.00;8.40;;;6.70;42.40;;;;;;5074623;28;20048;-79
2022/01/30 09:21:32;;;;;;;41.40;8.85;;;6.50;51.00;;;;;;5074633;28;20047;-80
2022/01/30 09:23:58;;;;;;;52.30;9.10;;;6.60;47.40;;;;;;5074663;28;20053;-79
2022/01/30 09:26:23;;;;;;;47.95;9.73;;;8.90;48.70;;;;;;5073938;28;20378;-79
2022/01/30 09:28:49;;;;;;;48.88;8.55;;;7.40;48.90;;;;;;5067376;28;20043;-79
2022/01/30 09:31:15;;;;;;;48.55;9.43;;;7.00;47.30;;;;;;5053168;28;20084;-79
2022/01/30 09:33:40;;;;;;;49.97;8.70;;;7.10;45.90;;;;;;5054918;28;20057;-79
2022/01/30 09:36:07;;;;;;;57.60;9.63;;;6.60;48.00;;;;;;5054553;28;20393;-79
2022/01/30 09:38:33;;;;;;;62.45;9.00;;;6.90;44.80;;;;;;5053080;28;20049;-80
2022/01/30 09:40:59;;;;;;;55.95;8.10;;;7.40;45.50;;;;;;5054521;28;20478;-79
2022/01/30 09:43:27;;;;;;;49.42;8.85;;;7.00;42.00;;;;;;5054357;28;20057;-79
2022/01/30 09:45:53;;;;;;;58.08;9.48;;;7.00;45.20;;;;;;5054914;28;20049;-79
2022/01/30 09:48:22;;;;;;;54.67;9.02;;;7.30;45.30;;;;;;5054231;28;20401;-79
2022/01/30 09:50:49;;;;;;;53.67;9.68;;;8.10;44.60;;;;;;5053649;28;20127;-79
2022/01/30 09:53:15;;;;;;;55.05;8.77;;;7.20;49.70;;;;;;5053611;28;20040;-79
2022/01/30 09:55:41;;;;;;;58.50;9.93;;;9.00;44.10;;;;;;5054456;28;20505;-79
2022/01/30 09:58:08;;;;;;;56.08;9.70;;;7.40;46.20;;;;;;5053868;28;20122;-80
2022/01/30 10:00:34;;;;;;;44.85;9.60;;;7.10;45.60;;;;;;5053820;28;20134;-79
2022/01/30 10:03:00;;;;;;;57.75;9.02;;;6.90;45.40;;;;;;5053994;28;20044;-79
2022/01/30 10:05:29;;;;;;;52.15;8.57;;;6.90;42.90;;;;;;5054435;28;20477;-79
2022/01/30 10:07:57;;;;;;;53.90;9.05;;;8.00;42.50;;;;;;5053813;28;20063;-79
2022/01/30 10:10:25;;;;;;;46.50;8.02;;;7.40;42.00;;;;;;5053679;28;20178;-79
2022/01/30 10:13:11;;;;;;;45.90;7.90;;;8.00;37.60;;;;;;5052878;28;20048;-79
2022/01/30 10:15:54;;;;;;;43.78;8.25;;;7.90;36.70;;;;;;5054219;28;20053;-79
2022/01/30 10:18:21;;;;;;;48.15;8.38;;;11.80;40.50;;;;;;5065298;28;20075;-79
2022/01/30 10:20:47;;;;;;;44.77;8.20;;;10.00;37.00;;;;;;5054006;28;20150;-79
2022/01/30 10:23:13;;;;;;;48.08;7.90;;;8.60;31.90;;;;;;5051963;28;20430;-79
2022/01/30 10:25:48;;;;;;;40.75;7.85;;;8.40;30.40;;;;;;5054125;28;20067;-79
2022/01/30 10:28:20;;;;;;;29.50;7.32;;;8.50;23.50;;;;;;5052903;28;20060;-80
2022/01/30 10:30:58;;;;;;;45.58;8.48;;;8.60;22.80;;;;;;5054009;28;20085;-79
2022/01/30 10:33:45;;;;;;;52.03;8.30;;;8.80;22.70;;;;;;5051568;28;20061;-79
2022/01/30 10:36:17;;;;;;;41.33;7.85;;;8.90;21.30;;;;;;5053274;28;20049;-79
2022/01/30 10:38:51;;;;;;;47.58;8.00;;;8.90;21.00;;;;;;5053177;28;20045;-79
2022/01/30 10:41:20;;;;;;;43.00;7.82;;;8.50;20.20;;;;;;5052027;28;20045;-79
2022/01/30 10:43:56;;;;;;;46.20;8.57;;;8.60;21.30;;;;;;5053066;28;20071;-79
2022/01/30 10:46:32;;;;;;;51.42;8.05;;;7.70;24.50;;;;;;5052194;28;20259;-79
2022/01/30 10:49:06;;;;;;;55.42;9.07;;;8.40;21.60;;;;;;5068989;28;20059;-80
2022/01/30 10:51:32;;;;;;;51.05;9.45;;;9.20;23.50;;;;;;5051834;28;20048;-80
2022/01/30 10:54:07;;;;;;;49.15;8.65;;;8.00;23.20;;;;;;5053332;28;20048;-79
2022/01/30 10:56:33;;;;;;;54.90;9.63;;;7.90;23.30;;;;;;5051887;28;20056;-79
2022/01/30 10:59:08;;;;;;;49.88;8.85;;;7.80;23.90;;;;;;5053033;28;20056;-79
2022/01/30 11:01:34;;;;;;;54.65;9.98;;;8.80;24.50;;;;;;5051953;28;20041;-79
2022/01/30 11:04:03;;;;;;;50.03;8.45;;;9.80;24.60;;;;;;5053387;28;20051;-79
2022/01/30 11:06:29;;;;;;;49.05;9.02;;;7.70;24.70;;;;;;5052803;28;20052;-80
2022/01/30 11:09:11;;;;;;;47.85;9.10;;;9.40;25.70;;;;;;5053401;28;20041;-79
2022/01/30 11:11:43;;;;;;;36.67;7.68;;;7.70;21.70;;;;;;5051807;28;20037;-79
2022/01/30 11:19:21;;;;;;;46.75;7.45;;;7.40;23.50;;;;;;5072546;28;20051;-79
2022/01/30 11:21:52;;;;;;;48.03;7.67;;;7.60;19.60;;;;;;5072498;28;20048;-79
2022/01/30 11:24:19;;;;;;;48.65;7.55;;;7.70;20.70;;;;;;5072011;28;20451;-79
2022/01/30 11:26:46;;;;;;;44.42;8.30;;;7.60;21.90;;;;;;5071860;28;20052;-80
2022/01/30 11:29:16;;;;;;;43.60;7.87;;;7.80;19.20;;;;;;5071382;28;20063;-79
2022/01/30 11:31:42;;;;;;;42.03;7.78;;;8.40;20.60;;;;;;5072316;28;20044;-79
2022/01/30 11:34:08;;;;;;;38.65;7.72;;;7.50;20.50;;;;;;5070349;28;20052;-79
2022/01/30 11:36:38;;;;;;;42.35;7.57;;;8.60;21.80;;;;;;5071971;28;20057;-78
2022/01/30 11:39:05;;;;;;;44.28;7.32;;;8.20;18.00;;;;;;5072316;28;20052;-78
2022/01/30 11:41:34;;;;;;;49.70;7.35;;;9.20;17.70;;;;;;5072258;28;20120;-79
2022/01/30 11:44:18;;;;;;;43.47;7.57;;;8.40;16.00;;;;;;5071836;28;20074;-78
2022/01/30 11:46:55;;;;;;;37.97;7.50;;;10.40;15.20;;;;;;5064126;28;20048;-78
2022/01/30 11:49:21;;;;;;;33.38;6.35;;;7.90;13.50;;;;;;5051826;28;20362;-78
2022/01/30 11:51:52;;;;;;;44.00;7.53;;;8.00;14.60;;;;;;5051827;28;20040;-78
2022/01/30 11:54:45;;;;;;;37.80;7.05;;;9.50;14.20;;;;;;5051741;28;20053;-78
2022/01/30 11:57:26;;;;;;;45.47;7.72;;;7.90;15.40;;;;;;5050522;28;20060;-78
2022/01/30 11:59:57;;;;;;;44.95;8.52;;;7.90;17.70;;;;;;5051601;28;20501;-78
2022/01/30 12:02:28;;;;;;;48.85;7.97;;;7.90;14.60;;;;;;5050244;28;20057;-78
2022/01/30 12:05:04;;;;;;;48.45;7.43;;;7.60;15.50;;;;;;5050772;28;20049;-78
2022/01/30 12:07:47;;;;;;;41.72;7.03;;;7.80;15.90;;;;;;5049574;28;20139;-78
2022/01/30 12:12:52;;;;;;;39.38;6.63;;;8.10;15.40;;;;;;5051621;28;20088;-79
2022/01/30 12:15:38;;;;;;;44.28;7.55;;;8.20;14.50;;;;;;5050948;28;20049;-79
2022/01/30 12:18:05;;;;;;;41.25;7.78;;;9.20;15.10;;;;;;5063510;28;20041;-79
2022/01/30 12:20:51;;;;;;;43.03;8.02;;;10.00;14.50;;;;;;5051295;28;20056;-80
2022/01/30 12:23:28;;;;;;;37.40;7.40;;;7.90;13.80;;;;;;5049325;28;20059;-80
2022/01/30 12:26:04;;;;;;;37.67;7.40;;;8.20;14.40;;;;;;5051620;28;20055;-80
2022/01/30 12:28:49;;;;;;;44.05;8.63;;;7.90;14.50;;;;;;5050797;28;20049;-78
2022/01/30 12:31:35;;;;;;;52.05;8.10;;;8.20;15.70;;;;;;5049582;28;20045;-78
2022/01/30 12:34:06;;;;;;;45.10;8.35;;;9.50;16.10;;;;;;5049842;28;20128;-79
2022/01/30 12:36:39;;;;;;;47.35;7.78;;;7.90;16.90;;;;;;5056288;28;20078;-79
2022/01/30 12:39:08;;;;;;;47.08;7.90;;;8.80;16.30;;;;;;5066811;28;20099;-78
2022/01/30 12:41:36;;;;;;;49.08;8.45;;;8.40;15.10;;;;;;5051101;28;20112;-78
2022/01/30 12:44:10;;;;;;;37.83;7.65;;;8.90;16.10;;;;;;5050758;28;20041;-78
2022/01/30 12:46:45;;;;;;;41.47;8.00;;;8.20;15.20;;;;;;5066504;28;20493;-78
2022/01/30 12:49:18;;;;;;;41.33;7.25;;;8.10;15.30;;;;;;5050979;28;20052;-79
2022/01/30 12:51:50;;;;;;;43.58;8.07;;;8.90;14.80;;;;;;5049616;28;20278;-79
2022/01/30 12:54:20;;;;;;;41.15;8.15;;;8.20;13.20;;;;;;5050907;28;20111;-79
2022/01/30 12:56:50;;;;;;;60.30;8.23;;;8.00;15.40;;;;;;5050344;28;20064;-79
2022/01/30 12:59:17;;;;;;;40.45;7.38;;;8.40;13.90;;;;;;5050714;28;20090;-80
2022/01/30 13:01:46;;;;;;;46.65;7.75;;;8.20;13.90;;;;;;5066983;28;20057;-79
2022/01/30 13:04:18;;;;;;;46.72;8.35;;;9.70;15.90;;;;;;5067067;28;20095;-79
2022/01/30 13:06:49;;;;;;;42.70;7.93;;;8.00;15.30;;;;;;5050752;28;20053;-79
2022/01/30 13:09:26;;;;;;;42.90;7.95;;;9.80;16.60;;;;;;5066130;28;20482;-80
2022/01/30 13:11:53;;;;;;;42.00;8.05;;;7.80;16.40;;;;;;5051206;28;20037;-79
2022/01/30 13:14:20;;;;;;;57.22;8.00;;;7.60;16.40;;;;;;5050411;28;20110;-79
2022/01/30 13:16:48;;;;;;;42.97;7.30;;;9.00;17.50;;;;;;5039017;28;20056;-79
2022/01/30 13:19:33;;;;;;;50.85;7.80;;;7.50;14.20;;;;;;5069528;28;20052;-81
2022/01/30 13:22:01;;;;;;;56.95;6.82;;;7.50;16.70;;;;;;5070745;28;20055;-80
2022/01/30 13:24:27;;;;;;;49.72;7.07;;;7.50;17.60;;;;;;5070752;28;20051;-80
2022/01/30 13:26:59;;;;;;;45.08;7.47;;;9.30;16.30;;;;;;5069648;28;20048;-80
2022/01/30 13:29:27;;;;;;;35.13;6.63;;;7.50;12.20;;;;;;5070280;28;20439;-79
2022/01/30 13:31:54;;;;;;;34.97;6.22;;;7.40;12.20;;;;;;5070665;28;20485;-79
2022/01/30 13:34:26;;;;;;;40.93;7.70;;;7.40;11.40;;;;;;5070193;28;20060;-80
2022/01/30 13:37:05;;;;;;;37.72;6.43;;;7.40;11.50;;;;;;5074444;28;20286;-80
2022/01/30 13:39:40;;;;;;;44.85;7.38;;;6.80;13.60;;;;;;5065746;28;20051;-80
2022/01/30 13:47:57;;;;;;;36.28;6.72;;;7.00;9.10;;;;;;5049821;28;20057;-78
2022/01/30 13:50:25;;;;;;;36.55;6.35;;;6.60;12.70;;;;;;5054121;28;20049;-78
2022/01/30 13:53:00;;;;;;;36.47;6.35;;;6.80;9.70;;;;;;5052595;28;20505;-78
2022/01/30 13:55:27;;;;;;;46.92;7.00;;;6.90;14.70;;;;;;5052981;28;20371;-78
2022/01/30 13:57:59;;;;;;;33.00;6.78;;;7.40;10.40;;;;;;5054311;28;20098;-78
2022/01/30 14:00:29;;;;;;;41.38;6.78;;;6.10;14.10;;;;;;5053421;28;20040;-78
2022/01/30 14:03:00;;;;;;;38.17;6.47;;;8.30;12.50;;;;;;5054346;28;20095;-78
2022/01/30 14:05:40;;;;;;;45.97;6.95;;;6.80;12.00;;;;;;5053909;28;20095;-78
2022/01/30 14:08:14;;;;;;;33.83;6.03;;;6.70;12.30;;;;;;5053840;28;20049;-78